Messwerte Umtata

Temperatur

Temperatur
°C
1579633200 21.00 21.00 18
1579636800 22.00 22.00 17
1579640400 23.00 23.00 17
1579644000 0.00 0.00 17
1579647600 1.00 1.00 17
1579651200 2.00 2.00 17
1579654800 3.00 3.00 17
1579658400 4.00 4.00 18
1579662000 5.00 5.00 17
1579665600 6.00 6.00 16
1579669200 7.00 7.00
1579672800 8.00 8.00 19
1579676400 9.00 9.00
1579680000 10.00 10.00 23
1579683600 11.00 11.00 23
1579687200 12.00 12.00 24
1579690800 13.00 13.00
1579694400 14.00 14.00 23
1579698000 15.00 15.00 23
1579701600 16.00 16.00 21
1579705200 17.00 17.00 19
1579708800 18.00 18.00 20
1579712400 19.00 19.00 19
1579716000 20.00 20.00 19

Aktuellste Messwerte

Wettercharakter
Wetter: bedeckt
Temperatur
19 °C
Feuchtigkeit
94 %
Wind
5 km/hWindrichtung: Süd
Luftdruck
1014 hPa
Messzeit: 22. Januar 2020, 20.00Datenquelle: METAR

Weitere Messstationen in der Nähe

Messstation Temperatur Entfernung
Margate 20 °C 175 km
Oos Londen 18 °C 184 km
Bisho 15 °C 201 km
Pietermaritzburg 16 °C 266 km
Durban 20 °C 300 km
La Mercy 20 °C 317 km
Gariep Dam 15 °C 318 km

Wind

Windrichtung Böen Mittelwind
° km/h km/h
1579633200 21.00 20.00 - 21.00 130° 20
1579636800 22.00 21.00 - 22.00 120° 20
1579640400 23.00 22.00 - 23.00 110° 20
1579644000 0.00 23.00 - 0.00 110° 15
1579647600 1.00 0.00 - 1.00 110° 10
1579651200 2.00 1.00 - 2.00 110° 10
1579654800 3.00 2.00 - 3.00 140° 10
1579658400 4.00 3.00 - 4.00 170° 5
1579662000 5.00 4.00 - 5.00 120° 10
1579665600 6.00 5.00 - 6.00 180° 5
1579669200 7.00 6.00 - 7.00
1579672800 8.00 7.00 - 8.00 170° 5
1579676400 9.00 8.00 - 9.00
1579680000 10.00 9.00 - 10.00 90° 5
1579683600 11.00 10.00 - 11.00 50° 5
1579687200 12.00 11.00 - 12.00 90° 5
1579690800 13.00 12.00 - 13.00
1579694400 14.00 13.00 - 14.00 0
1579698000 15.00 14.00 - 15.00 120° 20
1579701600 16.00 15.00 - 16.00 120° 20
1579705200 17.00 16.00 - 17.00 120° 15
1579708800 18.00 17.00 - 18.00 50° 10
1579712400 19.00 18.00 - 19.00 150° 20
1579716000 20.00 19.00 - 20.00 190° 5

Ihre Wetterstation

Fehlt Ihre Wetterstation auf unserem Portal?

Schreiben Sie an network@meteonews.ch

Klima

Wann ist es am wärmsten? Wann regnet es am wenigsten? Unsere Klimadaten geben Auskunft.